MMPN/UPN METAR and TAF weather

Enter ICAO airport designator
Station Type Date Time Source
MMPN METAR 2024/02/26 17:40 UTC NOAA

MMPN 261740Z 00000KT 10SM SKC 24/14 A3030 RMK HZY


Station Type Date Time Source
MMPN Decoded METAR 2024/02/26 17:40 UTC NOAA

Uruapan / Gen Rayon, Mexico (MMPN) 19-24N 102-02W
Feb 26, 2024 - 12:40 PM EST / 2024.02.26 1740 UTC
Wind: Calm:0
Visibility: 10 mile(s):0
Sky conditions: clear
Temperature: 75 F (24 C)
Dew Point: 57 F (14 C)
Relative Humidity: 53%
Pressure (altimeter): 30.3 in. Hg (1026 hPa)
ob: MMPN 261740Z 00000KT 10SM SKC 24/14 A3030 RMK HZY
cycle: 17

Station Type Date Time Source
MMPN TAF 2024/02/26 18:12 UTC NOAA